createdAt,value
2017-09-17T08:17:16.230Z,98868.77
2017-09-17T08:19:43.750Z,98870.33
2017-09-17T08:22:11.265Z,98870.73
2017-09-17T08:24:39.588Z,98872.39
2017-09-17T08:27:07.110Z,98870.50
2017-09-17T08:29:34.638Z,98866.18
2017-09-17T08:32:02.213Z,98863.91
2017-09-17T08:34:29.731Z,98865.64
2017-09-17T08:36:57.259Z,98869.45
2017-09-17T08:39:24.841Z,98863.11
2017-09-17T08:41:52.370Z,98862.70
2017-09-17T08:44:19.882Z,98858.66
2017-09-17T08:46:47.457Z,98857.54
2017-09-17T08:49:14.978Z,98853.52
2017-09-17T08:51:42.509Z,98852.94
2017-09-17T08:54:10.089Z,98848.35
2017-09-17T08:56:37.618Z,98845.41
2017-09-17T08:59:05.142Z,98848.11
2017-09-17T09:01:32.720Z,98846.45
2017-09-17T09:04:00.237Z,98849.56
2017-09-17T09:06:27.761Z,98840.38
2017-09-17T09:08:55.348Z,98847.27
2017-09-17T09:11:22.869Z,98846.72
2017-09-17T09:13:50.389Z,98839.16
2017-09-17T09:16:17.962Z,98836.69
2017-09-17T09:18:45.478Z,98839.12
2017-09-17T09:21:12.995Z,98836.38
2017-09-17T09:23:40.574Z,98834.35
2017-09-17T09:26:08.099Z,98833.00
2017-09-17T09:28:35.616Z,98834.35
2017-09-17T09:31:03.184Z,98826.25
2017-09-17T09:33:30.698Z,98819.19
2017-09-17T09:35:58.214Z,98815.23
2017-09-17T09:38:25.789Z,98816.57
2017-09-17T09:40:53.306Z,98819.28
2017-09-17T09:43:20.838Z,98819.52
2017-09-17T09:45:48.406Z,98823.12
2017-09-17T09:48:15.931Z,98820.42
2017-09-17T09:50:43.454Z,98819.33
2017-09-17T09:53:11.025Z,98813.79
2017-09-17T09:55:38.551Z,98812.98
2017-09-17T09:58:06.065Z,98809.03
2017-09-17T10:00:33.638Z,98803.22
2017-09-17T10:03:01.154Z,98806.86
2017-09-17T10:05:28.674Z,98801.28
2017-09-17T10:07:56.244Z,98802.05
2017-09-17T10:10:23.764Z,98800.42
2017-09-17T10:12:51.292Z,98795.11
2017-09-17T10:15:18.866Z,98802.13
2017-09-17T10:17:46.382Z,98801.02
2017-09-17T10:20:13.898Z,98790.48
2017-09-17T10:22:41.471Z,98786.42
2017-09-17T10:25:08.987Z,98786.97
2017-09-17T10:27:36.501Z,98783.31
2017-09-17T10:30:04.058Z,98775.61
2017-09-17T10:32:31.577Z,98782.23
2017-09-17T10:34:59.153Z,98778.41
2017-09-17T10:37:26.675Z,98781.92
2017-09-17T10:39:54.189Z,98776.38
2017-09-17T10:42:21.764Z,98780.29
2017-09-17T10:44:49.291Z,98774.62
2017-09-17T10:47:16.811Z,98778.94
2017-09-17T10:49:44.367Z,98774.71
2017-09-17T10:52:11.887Z,98772.95
2017-09-17T10:54:39.460Z,98772.81
2017-09-17T10:57:06.985Z,98765.92
2017-09-17T10:59:34.548Z,98764.84
2017-09-17T11:02:02.119Z,98760.11
2017-09-17T11:04:29.639Z,98759.02
2017-09-17T11:06:57.208Z,98763.22
2017-09-17T11:09:24.728Z,98768.31
2017-09-17T11:11:52.244Z,98766.28
2017-09-17T11:14:19.812Z,98764.08
2017-09-17T11:16:47.331Z,98760.42
2017-09-17T11:19:14.901Z,98752.31
2017-09-17T11:21:42.426Z,98753.67
2017-09-17T11:24:09.951Z,98758.94
2017-09-17T11:26:37.497Z,98748.12
2017-09-17T11:29:05.020Z,98752.17
2017-09-17T11:31:32.598Z,98745.69
2017-09-17T11:34:00.112Z,98746.62
2017-09-17T11:36:27.628Z,98743.92
2017-09-17T11:38:55.182Z,98748.12
2017-09-17T11:41:22.693Z,98748.80
2017-09-17T11:43:50.271Z,98747.22
2017-09-17T11:46:17.791Z,98742.22
2017-09-17T11:48:45.316Z,98734.20
2017-09-17T11:51:12.868Z,98738.66
2017-09-17T11:53:40.390Z,98738.12
2017-09-17T11:56:07.956Z,98740.69
2017-09-17T11:58:35.476Z,98736.05
2017-09-17T12:01:03.014Z,98737.00
2017-09-17T12:03:30.557Z,98734.65
2017-09-17T12:05:58.085Z,98729.32
2017-09-17T12:08:25.652Z,98726.17
2017-09-17T12:10:53.168Z,98730.31
2017-09-17T12:13:20.698Z,98734.00
2017-09-17T12:15:48.429Z,98732.38
2017-09-17T12:18:15.950Z,98731.80
2017-09-17T12:20:43.506Z,98725.62
2017-09-17T12:23:11.034Z,98724.74
2017-09-17T12:25:38.617Z,98725.23
2017-09-17T12:28:06.169Z,98721.73
2017-09-17T12:30:33.682Z,98722.26
2017-09-17T12:33:01.253Z,98716.94
2017-09-17T12:35:28.780Z,98713.14
2017-09-17T12:37:56.311Z,98719.33
2017-09-17T12:40:23.869Z,98714.04
2017-09-17T12:42:51.393Z,98714.56
2017-09-17T12:45:18.958Z,98707.07
2017-09-17T12:47:46.468Z,98715.30
2017-09-17T12:50:14.123Z,98707.58
2017-09-17T12:52:41.844Z,98707.27
2017-09-17T12:55:09.366Z,98700.85
2017-09-17T12:57:37.005Z,98696.34
2017-09-17T13:00:04.526Z,98696.59
2017-09-17T13:02:32.051Z,98698.16
2017-09-17T13:04:59.600Z,98699.15
2017-09-17T13:07:27.118Z,98685.02
2017-09-17T13:09:54.695Z,98688.83
2017-09-17T13:12:22.221Z,98686.61
2017-09-17T13:14:49.735Z,98683.30
2017-09-17T13:17:17.284Z,98687.51
2017-09-17T13:19:44.813Z,98683.56
2017-09-17T13:22:12.385Z,98681.69
2017-09-17T13:24:39.911Z,98679.99
2017-09-17T13:27:07.431Z,98674.38
2017-09-17T13:29:34.990Z,98671.96
2017-09-17T13:32:02.517Z,98678.12
2017-09-17T13:34:30.078Z,98675.59
2017-09-17T13:36:57.593Z,98673.95
2017-09-17T13:40:30.514Z,98673.20
2017-09-17T13:42:58.044Z,98668.58
2017-09-17T13:45:25.568Z,98670.03
2017-09-17T13:47:53.136Z,98663.05
2017-09-17T13:50:20.644Z,98669.42
2017-09-17T13:52:48.164Z,98671.12
2017-09-17T13:55:15.739Z,98670.96
2017-09-17T13:57:43.263Z,98662.72
2017-09-17T14:00:10.783Z,98659.53
2017-09-17T14:02:41.959Z,98657.55
2017-09-17T14:05:11.900Z,98664.05
2017-09-17T14:10:49.546Z,98664.34
2017-09-17T14:13:17.125Z,98662.63
2017-09-17T14:15:44.661Z,98666.45
2017-09-17T14:18:12.194Z,98660.73
2017-09-17T14:20:39.769Z,98667.05
2017-09-17T14:23:07.295Z,98661.63
2017-09-17T14:25:34.815Z,98656.87
2017-09-17T14:28:02.378Z,98654.17
2017-09-17T14:30:29.892Z,98659.64
2017-09-17T14:32:57.462Z,98652.41
2017-09-17T14:35:24.978Z,98648.67
2017-09-17T14:37:52.497Z,98645.50
2017-09-17T14:40:20.045Z,98650.84
2017-09-17T14:42:47.591Z,98652.14
2017-09-17T14:45:15.162Z,98651.67
2017-09-17T14:47:42.691Z,98650.66
2017-09-17T14:50:10.210Z,98643.03
2017-09-17T14:52:37.774Z,98642.30
2017-09-17T14:55:05.298Z,98647.50
2017-09-17T14:57:32.875Z,98640.73
2017-09-17T15:00:00.582Z,98634.66
2017-09-17T15:02:28.105Z,98632.61
2017-09-17T15:04:55.662Z,98628.47
2017-09-17T15:07:23.180Z,98619.09
2017-09-17T15:09:50.781Z,98620.05
2017-09-17T15:12:18.298Z,98624.81
2017-09-17T15:14:45.814Z,98628.06
2017-09-17T15:17:13.364Z,98630.92
2017-09-17T15:19:40.885Z,98628.39
2017-09-17T15:22:08.458Z,98633.27
2017-09-17T15:24:35.977Z,98630.99
2017-09-17T15:27:03.502Z,98638.03
2017-09-17T15:29:31.049Z,98635.58
2017-09-17T15:31:58.578Z,98641.07
2017-09-17T15:34:26.155Z,98642.17
2017-09-17T15:36:53.679Z,98646.23
2017-09-17T15:39:21.197Z,98643.70
2017-09-17T15:41:48.750Z,98644.88
2017-09-17T15:44:16.273Z,98643.70
2017-09-17T15:46:43.845Z,98647.77
2017-09-17T15:49:11.378Z,98641.40
2017-09-17T15:51:38.898Z,98650.89
2017-09-17T15:54:06.445Z,98651.03
2017-09-17T15:56:33.955Z,98652.53
2017-09-17T15:59:01.531Z,98658.50
2017-09-17T16:01:29.062Z,98657.70
2017-09-17T16:03:56.580Z,98658.97
2017-09-17T16:06:24.180Z,98659.23
2017-09-17T16:08:51.701Z,98661.77
2017-09-17T16:11:19.282Z,98661.33
2017-09-17T16:13:46.807Z,98663.38
2017-09-17T16:16:14.329Z,98661.22
2017-09-17T16:18:41.878Z,98658.91
2017-09-17T16:21:09.394Z,98665.69
2017-09-17T16:23:36.970Z,98669.75
2017-09-17T16:26:04.495Z,98660.66
2017-09-17T16:28:32.032Z,98666.49
2017-09-17T16:30:59.590Z,98662.28
2017-09-17T16:33:27.115Z,98666.34
2017-09-17T16:35:54.693Z,98665.22
2017-09-17T16:38:22.220Z,98665.80
2017-09-17T16:40:49.738Z,98669.28
2017-09-17T16:43:17.294Z,98663.86
2017-09-17T16:45:44.820Z,98670.49
2017-09-17T16:48:12.398Z,98668.18
2017-09-17T16:50:39.921Z,98673.20
2017-09-17T16:53:07.434Z,98675.51
2017-09-17T16:55:34.982Z,98672.57
2017-09-17T16:58:02.506Z,98669.69
2017-09-17T17:00:30.080Z,98678.36
2017-09-17T17:02:57.604Z,98673.52
2017-09-17T17:05:25.130Z,98670.41
2017-09-17T17:07:52.686Z,98670.01
2017-09-17T17:10:20.213Z,98671.77
2017-09-17T17:12:47.787Z,98675.83
2017-09-17T17:15:15.304Z,98675.43
2017-09-17T17:17:42.902Z,98679.49
2017-09-17T17:20:10.454Z,98681.66
2017-09-17T17:22:38.014Z,98689.94
2017-09-17T17:25:05.691Z,98694.95
2017-09-17T17:27:33.218Z,98695.36
2017-09-17T17:30:00.733Z,98699.02
2017-09-17T17:32:28.296Z,98698.88
2017-09-17T17:34:55.818Z,98703.48
2017-09-17T17:37:23.399Z,98702.94
2017-09-17T17:39:50.926Z,98707.00
2017-09-17T17:42:21.993Z,98706.45
2017-09-17T17:44:49.554Z,98706.75
2017-09-17T17:47:17.081Z,98708.91
2017-09-17T17:49:44.658Z,98720.70
2017-09-17T17:52:12.177Z,98724.22
2017-09-17T17:54:39.772Z,98734.66
2017-09-17T17:57:07.326Z,98742.14
2017-09-17T17:59:34.846Z,98742.71
2017-09-17T18:02:02.409Z,98745.57
2017-09-17T18:04:29.939Z,98744.22
2017-09-17T18:06:57.542Z,98749.23
2017-09-17T18:09:25.226Z,98754.66
2017-09-17T18:11:52.741Z,98755.61
2017-09-17T18:14:20.314Z,98762.38
2017-09-17T18:16:47.843Z,98764.28
2017-09-17T18:19:15.383Z,98770.52
2017-09-17T18:21:43.087Z,98770.92
2017-09-17T18:24:12.238Z,98774.52
2017-09-17T18:26:39.866Z,98780.09
2017-09-17T18:29:07.642Z,98784.33
2017-09-17T18:31:35.846Z,98784.39
2017-09-17T18:34:03.941Z,98786.17
2017-09-17T18:36:31.746Z,98787.71
2017-09-17T18:38:59.518Z,98788.80
2017-09-17T18:41:27.036Z,98792.20
2017-09-17T18:43:54.555Z,98794.28
2017-09-17T18:46:22.112Z,98798.84
2017-09-17T18:48:49.629Z,98799.17
2017-09-17T18:51:17.206Z,98804.80
2017-09-17T18:53:44.731Z,98806.34
2017-09-17T18:56:12.261Z,98803.23
2017-09-17T18:58:39.811Z,98805.05
2017-09-17T19:01:07.331Z,98804.79
2017-09-17T19:03:34.894Z,98809.55
2017-09-17T19:06:02.413Z,98805.70
2017-09-17T19:08:29.936Z,98808.61
2017-09-17T19:10:57.496Z,98799.73
2017-09-17T19:13:25.029Z,98806.83
2017-09-17T19:15:52.589Z,98811.18
2017-09-17T19:18:20.105Z,98811.91
2017-09-17T19:20:47.622Z,98813.00
2017-09-17T19:23:15.412Z,98811.41
2017-09-17T19:25:42.932Z,98811.16
2017-09-17T19:28:10.513Z,98807.38
2017-09-17T19:30:38.040Z,98807.78
2017-09-17T19:33:05.563Z,98810.41
2017-09-17T19:35:33.117Z,98810.00
2017-09-17T19:38:00.639Z,98812.45
2017-09-17T19:40:28.212Z,98810.73
2017-09-17T19:42:55.735Z,98811.50
2017-09-17T19:45:23.256Z,98814.39
2017-09-17T19:47:50.814Z,98815.34
2017-09-17T19:50:18.330Z,98818.45
2017-09-17T19:52:45.907Z,98820.36
2017-09-17T19:55:13.425Z,98818.34
2017-09-17T19:57:40.959Z,98817.94
2017-09-17T20:00:08.516Z,98827.27
2017-09-17T20:02:36.046Z,98826.47
2017-09-17T20:05:03.629Z,98818.11
2017-09-17T20:07:31.158Z,98824.88
2017-09-17T20:09:58.677Z,98827.73
2017-09-17T20:12:26.242Z,98824.22
2017-09-17T20:14:53.770Z,98833.70
2017-09-17T20:17:21.344Z,98833.30
2017-09-17T20:19:48.865Z,98832.89
2017-09-17T20:22:16.388Z,98832.66
2017-09-17T20:24:43.936Z,98831.05
2017-09-17T20:27:11.462Z,98829.30
2017-09-17T20:29:39.035Z,98832.27
2017-09-17T20:32:06.558Z,98833.62
2017-09-17T20:34:34.082Z,98830.50
2017-09-17T20:37:01.633Z,98836.73
2017-09-17T20:39:29.149Z,98835.34
2017-09-17T20:41:56.715Z,98839.27
2017-09-17T20:44:24.238Z,98842.18
2017-09-17T20:46:51.756Z,98844.86
2017-09-17T20:49:19.319Z,98843.84
2017-09-17T20:51:46.846Z,98835.11
2017-09-17T20:54:14.425Z,98836.44
2017-09-17T20:56:41.950Z,98834.41
2017-09-17T20:59:09.467Z,98831.94
2017-09-17T21:01:37.031Z,98837.91
2017-09-17T21:04:04.555Z,98836.83
2017-09-17T21:06:32.127Z,98829.97
2017-09-17T21:08:59.645Z,98836.63
2017-09-17T21:11:27.158Z,98841.15
2017-09-17T21:13:54.708Z,98840.75
2017-09-17T21:16:22.234Z,98837.41
2017-09-17T21:18:49.805Z,98839.22
2017-09-17T21:21:17.331Z,98843.56
2017-09-17T21:23:44.863Z,98839.27
2017-09-17T21:26:12.414Z,98835.23
2017-09-17T21:28:39.936Z,98837.53
2017-09-17T21:31:07.507Z,98835.59
2017-09-17T21:33:35.020Z,98836.14
2017-09-17T21:36:02.538Z,98838.77
2017-09-17T21:38:30.098Z,98842.02
2017-09-17T21:40:57.647Z,98834.86
2017-09-17T21:43:25.297Z,98843.13
2017-09-17T21:45:52.813Z,98840.07
2017-09-17T21:48:20.328Z,98848.69
2017-09-17T21:50:47.880Z,98840.21
2017-09-17T21:53:15.398Z,98849.05
2017-09-17T21:55:42.973Z,98846.62
2017-09-17T21:58:10.509Z,98846.54
2017-09-17T22:00:38.033Z,98849.66
2017-09-17T22:03:05.577Z,98855.66
2017-09-17T22:05:33.103Z,98850.25
2017-09-17T22:08:00.679Z,98848.63
2017-09-17T22:10:28.195Z,98850.70
2017-09-17T22:12:55.712Z,98848.45
2017-09-17T22:15:23.261Z,98845.02
2017-09-17T22:17:50.780Z,98845.62
2017-09-17T22:20:18.345Z,98851.44
2017-09-17T22:22:45.865Z,98853.25
2017-09-17T22:25:13.379Z,98860.97
2017-09-17T22:27:40.945Z,98854.05
2017-09-17T22:30:08.466Z,98860.47
2017-09-17T22:32:36.038Z,98848.57
2017-09-17T22:35:03.554Z,98856.45
2017-09-17T22:37:31.071Z,98856.20
2017-09-17T22:39:58.621Z,98855.70
2017-09-17T22:42:26.136Z,98859.59
2017-09-17T22:44:53.653Z,98859.76
2017-09-17T22:47:21.204Z,98863.55
2017-09-17T22:49:48.717Z,98857.10
2017-09-17T22:52:16.239Z,98854.27
2017-09-17T22:54:43.794Z,98856.22
2017-09-17T22:57:11.313Z,98856.22
2017-09-17T22:59:38.830Z,98857.71
2017-09-17T23:02:06.388Z,98863.30
2017-09-17T23:04:33.902Z,98860.88
2017-09-17T23:07:01.417Z,98866.83
2017-09-17T23:09:28.966Z,98861.81
2017-09-17T23:11:56.482Z,98866.45
2017-09-17T23:14:24.007Z,98857.93
2017-09-17T23:16:51.566Z,98866.83
2017-09-17T23:19:19.090Z,98864.13
2017-09-17T23:21:46.606Z,98859.11
2017-09-17T23:24:14.165Z,98864.43
2017-09-17T23:26:41.684Z,98869.03
2017-09-17T23:29:09.203Z,98865.97
2017-09-17T23:31:36.765Z,98870.84
2017-09-17T23:34:04.285Z,98871.65
2017-09-17T23:36:31.796Z,98876.66
2017-09-17T23:38:59.363Z,98870.34
2017-09-17T23:41:26.877Z,98870.58
2017-09-17T23:43:54.396Z,98875.45
2017-09-17T23:46:21.975Z,98871.98
2017-09-17T23:48:49.506Z,98871.57
2017-09-17T23:51:17.042Z,98870.12
2017-09-17T23:53:46.410Z,98867.42
2017-09-17T23:56:13.927Z,98864.99
2017-09-17T23:58:41.446Z,98864.90
